Time;durP1;ratioP1;P1;durP2;ratioP2;P2;SDS_P1;SDS_P2;PMS_P1;PMS_P2;Temp;Humidity;BMP_temperature;BMP_pressure;BME280_temperature;BME280_humidity;BME280_pressure;Samples;Min_cycle;Max_cycle;Signal;HPM_P1;HPM_P2
2022/10/07 00:00:23;;;;;;;8.00;4.30;;;14.50;88.10;;;;;;5030087;28;20583;-69
2022/10/07 00:02:49;;;;;;;14.80;4.33;;;14.40;88.10;;;;;;5027969;28;20190;-70
2022/10/07 00:05:14;;;;;;;8.47;4.40;;;14.40;88.40;;;;;;5022849;28;20681;-70
2022/10/07 00:07:40;;;;;;;12.63;4.40;;;14.30;88.40;;;;;;5029572;28;20268;-70
2022/10/07 00:10:06;;;;;;;10.87;4.50;;;14.30;89.00;;;;;;5029797;28;20561;-71
2022/10/07 00:12:32;;;;;;;9.43;4.33;;;14.40;89.00;;;;;;5029112;28;20190;-70
2022/10/07 00:14:58;;;;;;;8.13;4.80;;;14.40;88.60;;;;;;5028016;28;20522;-70
2022/10/07 00:17:23;;;;;;;9.70;4.17;;;14.40;88.40;;;;;;5029719;28;20549;-70
2022/10/07 00:19:49;;;;;;;7.33;5.13;;;14.40;88.60;;;;;;5029804;28;20264;-70
2022/10/07 00:22:14;;;;;;;11.10;4.10;;;14.40;88.60;;;;;;5029059;28;20255;-70
2022/10/07 00:24:40;;;;;;;6.37;4.20;;;14.40;89.20;;;;;;5021954;28;20648;-71
2022/10/07 00:27:06;;;;;;;8.80;3.93;;;14.40;89.00;;;;;;5032519;28;20185;-71
2022/10/07 00:29:31;;;;;;;15.57;5.20;;;14.50;88.90;;;;;;5033546;28;20220;-71
2022/10/07 00:31:57;;;;;;;7.30;4.73;;;14.40;89.20;;;;;;5033077;28;20177;-71
2022/10/07 00:34:22;;;;;;;14.27;5.67;;;14.50;89.20;;;;;;5026681;28;20212;-71
2022/10/07 00:36:51;;;;;;;11.70;5.23;;;14.50;89.20;;;;;;5028921;28;20218;-69
2022/10/07 00:39:17;;;;;;;7.90;4.50;;;14.60;88.90;;;;;;5033865;28;20186;-69
2022/10/07 00:41:48;;;;;;;7.07;4.20;;;14.60;88.90;;;;;;5033614;28;20464;-70
2022/10/07 00:44:43;;;;;;;12.73;5.20;;;14.60;88.70;;;;;;5026747;28;20461;-69
2022/10/07 00:47:23;;;;;;;12.43;5.70;;;14.60;88.60;;;;;;5031859;28;20432;-70
2022/10/07 00:49:51;;;;;;;8.60;4.67;;;14.60;88.60;;;;;;5032836;28;20419;-70
2022/10/07 00:52:20;;;;;;;9.50;5.23;;;14.60;88.10;;;;;;5022502;28;20421;-70
2022/10/07 00:54:48;;;;;;;14.90;5.77;;;14.70;87.80;;;;;;5027356;28;20460;-70
2022/10/07 00:57:14;;;;;;;12.73;5.73;;;14.70;87.80;;;;;;5032993;28;20487;-71
2022/10/07 00:59:40;;;;;;;12.03;5.57;;;14.70;87.80;;;;;;5032997;28;20913;-71
2022/10/07 01:02:07;;;;;;;15.20;5.70;;;14.60;87.80;;;;;;5032402;28;20192;-71
2022/10/07 01:04:32;;;;;;;16.20;5.70;;;14.60;88.10;;;;;;5030500;28;20468;-70
2022/10/07 01:06:58;;;;;;;15.80;6.33;;;14.60;88.30;;;;;;5032698;28;20803;-69
2022/10/07 01:09:24;;;;;;;9.40;5.30;;;14.70;88.10;;;;;;5032976;28;20427;-70
2022/10/07 01:12:30;;;;;;;12.90;6.20;;;14.70;88.00;;;;;;5032955;28;20182;-70
2022/10/07 01:15:12;;;;;;;15.13;6.17;;;14.70;87.80;;;;;;5026552;28;20289;-71
2022/10/07 01:17:57;;;;;;;13.80;6.07;;;14.60;87.80;;;;;;5032706;28;20464;-70
2022/10/07 01:20:44;;;;;;;8.17;5.43;;;14.60;87.80;;;;;;5033191;28;20478;-72
2022/10/07 01:23:40;;;;;;;7.97;5.30;;;14.60;87.70;;;;;;5027791;28;20426;-70
2022/10/07 01:26:41;;;;;;;14.80;5.57;;;14.40;86.50;;;;;;5017984;28;20433;-71
2022/10/07 01:29:26;;;;;;;10.40;5.67;;;14.30;87.00;;;;;;5019154;28;20525;-71
2022/10/07 01:32:03;;;;;;;11.30;5.70;;;14.40;87.00;;;;;;5025015;28;20416;-71
2022/10/07 01:34:32;;;;;;;8.20;4.97;;;14.30;87.00;;;;;;5020298;28;20945;-71
2022/10/07 01:37:00;;;;;;;9.30;5.00;;;14.40;87.10;;;;;;5025261;28;20525;-70
2022/10/07 01:39:36;;;;;;;10.57;5.00;;;14.40;87.00;;;;;;5033112;28;20420;-71
2022/10/07 01:42:02;;;;;;;7.60;4.77;;;14.40;86.90;;;;;;5032510;28;20427;-72
2022/10/07 01:44:29;;;;;;;7.43;4.70;;;14.40;86.80;;;;;;5023981;28;20554;-71
2022/10/07 01:46:55;;;;;;;8.60;4.30;;;14.50;86.60;;;;;;5032761;28;20428;-71
2022/10/07 01:49:21;;;;;;;11.60;4.97;;;14.50;86.30;;;;;;5032955;28;20421;-72
2022/10/07 01:52:07;;;;;;;8.03;4.77;;;14.50;85.90;;;;;;5032491;28;20220;-70
2022/10/07 01:54:41;;;;;;;9.83;4.43;;;14.60;85.60;;;;;;5029386;28;20456;-71
2022/10/07 01:57:26;;;;;;;7.30;4.00;;;14.60;85.20;;;;;;5032775;28;20456;-71
2022/10/07 02:00:08;;;;;;;8.83;4.50;;;14.70;84.70;;;;;;5026350;28;20420;-71
2022/10/07 02:02:59;;;;;;;11.97;4.23;;;14.70;84.70;;;;;;5032162;28;20510;-72
2022/10/07 02:05:32;;;;;;;10.80;5.23;;;14.70;84.70;;;;;;5032033;28;20556;-71
2022/10/07 02:08:25;;;;;;;9.37;4.90;;;14.70;85.00;;;;;;5036324;28;20426;-73
2022/10/07 02:11:19;;;;;;;7.50;4.30;;;14.80;85.00;;;;;;5036385;28;20416;-71
2022/10/07 02:14:00;;;;;;;7.77;4.20;;;14.70;85.30;;;;;;5032391;28;20523;-72
2022/10/07 02:16:43;;;;;;;10.50;4.77;;;14.80;85.90;;;;;;5032903;28;20425;-71
2022/10/07 02:19:23;;;;;;;10.63;5.53;;;14.80;86.20;;;;;;5030917;28;20455;-70
2022/10/07 02:21:52;;;;;;;9.40;5.33;;;14.80;86.30;;;;;;5030459;28;20408;-72
2022/10/07 02:24:21;;;;;;;12.00;5.60;;;14.80;86.50;;;;;;5027392;28;20455;-71
2022/10/07 02:26:50;;;;;;;8.70;5.40;;;14.80;86.60;;;;;;5033685;28;20410;-71
2022/10/07 02:29:20;;;;;;;8.87;4.53;;;14.70;86.90;;;;;;5036637;28;20544;-71
2022/10/07 02:31:47;;;;;;;10.00;4.90;;;14.70;86.90;;;;;;5037057;28;20406;-71
2022/10/07 02:34:17;;;;;;;8.03;4.27;;;14.60;87.10;;;;;;5030618;28;20539;-71
2022/10/07 02:36:49;;;;;;;8.87;5.10;;;14.70;86.80;;;;;;5027952;28;20626;-71
2022/10/07 02:39:14;;;;;;;11.53;5.20;;;14.70;86.50;;;;;;5032697;28;20418;-71
2022/10/07 02:41:59;;;;;;;8.47;4.77;;;14.70;86.50;;;;;;5031795;28;20435;-71
2022/10/07 02:44:47;;;;;;;8.10;4.80;;;14.70;86.80;;;;;;5027539;28;20266;-69
2022/10/07 02:47:48;;;;;;;9.53;5.13;;;14.60;86.90;;;;;;5030573;28;20950;-69
2022/10/07 02:50:19;;;;;;;11.80;5.53;;;14.70;87.30;;;;;;5021697;28;20505;-72
2022/10/07 02:52:45;;;;;;;9.50;4.80;;;14.60;87.30;;;;;;5032619;28;21044;-70
2022/10/07 02:55:16;;;;;;;10.13;4.63;;;14.50;87.40;;;;;;5028409;28;20483;-71
2022/10/07 02:57:46;;;;;;;9.50;4.30;;;14.50;87.80;;;;;;5031066;28;20955;-70
2022/10/07 03:00:13;;;;;;;7.90;4.17;;;14.50;88.10;;;;;;5031466;28;20452;-72
2022/10/07 03:03:01;;;;;;;9.50;3.80;;;14.50;88.30;;;;;;5033771;28;20435;-70
2022/10/07 03:05:27;;;;;;;6.60;4.03;;;14.40;88.40;;;;;;5030006;28;20456;-72
2022/10/07 03:07:59;;;;;;;8.00;4.13;;;14.30;88.40;;;;;;5038272;28;20501;-69
2022/10/07 03:10:25;;;;;;;9.30;4.33;;;14.20;88.90;;;;;;5040075;28;20177;-70
2022/10/07 03:12:51;;;;;;;7.63;4.37;;;14.10;89.20;;;;;;5037423;28;20436;-70
2022/10/07 03:15:17;;;;;;;7.50;4.20;;;14.00;89.60;;;;;;5038338;28;20463;-69
2022/10/07 03:17:42;;;;;;;8.77;4.53;;;14.00;89.90;;;;;;5036906;28;20464;-70
2022/10/07 03:20:09;;;;;;;6.13;3.77;;;14.10;89.60;;;;;;5037836;28;20606;-70
2022/10/07 03:22:35;;;;;;;8.30;4.50;;;14.10;89.60;;;;;;5036914;28;20190;-70
2022/10/07 03:25:00;;;;;;;7.67;4.13;;;14.10;89.60;;;;;;5028726;28;20975;-70
2022/10/07 03:27:27;;;;;;;9.30;4.67;;;14.10;89.60;;;;;;5033534;28;20490;-71
2022/10/07 03:29:54;;;;;;;11.67;4.90;;;14.10;89.60;;;;;;5033570;28;20545;-71
2022/10/07 03:32:19;;;;;;;10.60;5.10;;;14.10;89.60;;;;;;5033150;28;20928;-71
2022/10/07 03:34:45;;;;;;;8.23;4.40;;;14.10;89.50;;;;;;5031055;28;20483;-70
2022/10/07 03:37:10;;;;;;;8.47;4.70;;;14.10;89.50;;;;;;5035318;28;20626;-70
2022/10/07 03:39:36;;;;;;;8.03;5.17;;;14.10;89.50;;;;;;5036324;28;20176;-71
2022/10/07 03:42:03;;;;;;;8.60;4.93;;;14.20;89.60;;;;;;5036081;28;20193;-70
2022/10/07 03:44:28;;;;;;;9.90;5.63;;;14.20;89.70;;;;;;5034182;28;20199;-71
2022/10/07 03:46:54;;;;;;;10.67;4.87;;;14.20;89.90;;;;;;5036238;28;20420;-71
2022/10/07 03:49:20;;;;;;;7.43;4.10;;;14.20;90.00;;;;;;5035219;28;20234;-70
2022/10/07 03:51:46;;;;;;;6.97;4.17;;;14.20;90.10;;;;;;5034355;28;20537;-71
2022/10/07 03:54:12;;;;;;;8.80;4.20;;;14.20;90.00;;;;;;5031274;28;20736;-71
2022/10/07 03:56:37;;;;;;;6.73;3.77;;;14.20;89.90;;;;;;5028251;28;20523;-71
2022/10/07 03:59:03;;;;;;;11.90;4.37;;;14.30;89.70;;;;;;5031112;28;20700;-70
2022/10/07 04:01:30;;;;;;;9.73;5.13;;;14.30;89.00;;;;;;5036141;28;20235;-70
2022/10/07 04:03:58;;;;;;;9.60;4.10;;;14.30;89.00;;;;;;5033312;28;20578;-70
2022/10/07 04:06:24;;;;;;;7.63;5.13;;;14.30;89.30;;;;;;5039172;28;20416;-72
2022/10/07 04:08:57;;;;;;;6.80;4.37;;;14.30;89.20;;;;;;5043605;28;20506;-69
2022/10/07 04:11:23;;;;;;;7.47;4.43;;;14.30;89.00;;;;;;5043363;28;20193;-71
2022/10/07 04:13:49;;;;;;;8.23;4.30;;;14.30;89.20;;;;;;5038930;28;20469;-70
2022/10/07 04:16:15;;;;;;;8.93;5.10;;;14.20;89.50;;;;;;5036860;28;20425;-71
2022/10/07 04:18:43;;;;;;;10.30;5.10;;;14.30;89.90;;;;;;5041498;28;20969;-70
2022/10/07 04:21:09;;;;;;;7.13;3.80;;;14.30;90.00;;;;;;5039590;28;20432;-70
2022/10/07 04:23:35;;;;;;;10.20;4.43;;;14.30;90.10;;;;;;5038221;28;20427;-70
2022/10/07 04:26:05;;;;;;;8.07;5.57;;;14.20;90.20;;;;;;5033755;28;20412;-70
2022/10/07 04:28:31;;;;;;;6.73;4.43;;;14.30;90.30;;;;;;5035929;28;20471;-70
2022/10/07 04:30:56;;;;;;;11.77;4.70;;;14.30;90.30;;;;;;5036158;28;20424;-69
2022/10/07 04:33:23;;;;;;;7.97;4.50;;;14.30;90.40;;;;;;5035254;28;20190;-69
2022/10/07 04:35:49;;;;;;;10.77;5.57;;;14.40;90.30;;;;;;5030184;28;20594;-72
2022/10/07 04:38:19;;;;;;;10.50;5.20;;;14.40;90.30;;;;;;5035467;28;21050;-70
2022/10/07 04:40:48;;;;;;;13.80;5.40;;;14.40;90.30;;;;;;5034746;28;20412;-70
2022/10/07 04:43:19;;;;;;;9.07;4.97;;;14.50;90.00;;;;;;5033936;28;20429;-70
2022/10/07 04:45:53;;;;;;;7.90;4.67;;;14.40;90.10;;;;;;5029318;28;20469;-69
2022/10/07 04:48:21;;;;;;;15.23;5.67;;;14.50;90.00;;;;;;5030309;28;20527;-70
2022/10/07 04:50:48;;;;;;;10.70;4.70;;;14.50;89.90;;;;;;5034372;28;20528;-70
2022/10/07 04:53:15;;;;;;;12.70;5.40;;;14.40;90.00;;;;;;5034096;28;20426;-70
2022/10/07 04:55:43;;;;;;;11.60;5.57;;;14.30;90.20;;;;;;5031324;28;20975;-69
2022/10/07 04:58:09;;;;;;;11.60;5.43;;;14.40;90.10;;;;;;5033986;28;20467;-70
2022/10/07 05:00:39;;;;;;;12.03;5.10;;;14.30;90.10;;;;;;5034008;28;20798;-70
2022/10/07 05:03:05;;;;;;;14.10;5.60;;;14.30;90.20;;;;;;5034071;28;20413;-70
2022/10/07 05:05:31;;;;;;;12.10;6.30;;;14.40;90.20;;;;;;5031506;28;20886;-70
2022/10/07 05:07:56;;;;;;;13.07;6.13;;;14.20;90.00;;;;;;5034063;28;20678;-70
2022/10/07 05:10:22;;;;;;;10.50;5.60;;;14.30;90.30;;;;;;5032607;28;20189;-71
2022/10/07 05:12:47;;;;;;;8.17;5.43;;;14.30;90.10;;;;;;5033337;28;20647;-71
2022/10/07 05:15:13;;;;;;;8.90;5.10;;;14.30;90.10;;;;;;5026622;28;20193;-71
2022/10/07 05:17:42;;;;;;;10.40;6.17;;;14.30;90.10;;;;;;5033707;28;20603;-70
2022/10/07 05:20:09;;;;;;;10.50;6.53;;;14.40;90.30;;;;;;5033851;28;20213;-70
2022/10/07 05:22:34;;;;;;;15.80;6.30;;;14.40;90.40;;;;;;5032222;28;20426;-70
2022/10/07 05:25:00;;;;;;;14.63;6.50;;;14.40;90.30;;;;;;5025964;28;20451;-71
2022/10/07 05:27:26;;;;;;;8.87;5.40;;;14.40;90.30;;;;;;5033663;28;20678;-72
2022/10/07 05:29:51;;;;;;;13.90;5.93;;;14.40;90.30;;;;;;5033598;28;20460;-71
2022/10/07 05:32:17;;;;;;;11.37;5.90;;;14.30;90.50;;;;;;5033773;28;20642;-71
2022/10/07 05:34:46;;;;;;;12.23;5.73;;;14.40;90.50;;;;;;5026691;28;20769;-72
2022/10/07 05:37:11;;;;;;;12.50;5.70;;;14.40;90.30;;;;;;5033234;28;20679;-71
2022/10/07 05:39:37;;;;;;;8.97;5.77;;;14.40;90.10;;;;;;5033416;28;20446;-71
2022/10/07 05:42:03;;;;;;;17.33;5.70;;;14.40;90.00;;;;;;5034039;28;20247;-71
2022/10/07 05:44:32;;;;;;;10.77;6.63;;;14.40;90.10;;;;;;5030389;28;20289;-73
2022/10/07 05:46:57;;;;;;;10.93;6.03;;;14.50;90.00;;;;;;5034294;28;20657;-72
2022/10/07 05:49:23;;;;;;;10.87;6.20;;;14.50;89.90;;;;;;5033142;28;20424;-71
2022/10/07 05:51:50;;;;;;;10.37;6.00;;;14.50;90.00;;;;;;5032646;28;20217;-72
2022/10/07 05:54:16;;;;;;;11.20;5.70;;;14.50;90.00;;;;;;5030415;28;20197;-71
2022/10/07 05:56:41;;;;;;;15.30;5.77;;;14.60;90.10;;;;;;5032720;28;20799;-71
2022/10/07 05:59:07;;;;;;;9.90;5.47;;;14.60;89.90;;;;;;5032891;28;20251;-71
2022/10/07 06:01:32;;;;;;;13.53;6.23;;;14.60;89.70;;;;;;5032824;28;20276;-71
2022/10/07 06:03:58;;;;;;;10.97;6.27;;;14.60;89.70;;;;;;5029878;28;20202;-70
2022/10/07 06:06:25;;;;;;;10.13;5.40;;;14.70;89.70;;;;;;5033009;28;20178;-71
2022/10/07 06:08:51;;;;;;;12.37;5.30;;;14.70;89.70;;;;;;5031972;28;20654;-71
2022/10/07 06:14:03;;;;;;;12.80;5.10;;;14.80;89.60;;;;;;5025424;28;20467;-71
2022/10/07 06:16:29;;;;;;;15.00;5.53;;;14.90;89.20;;;;;;5032185;28;20495;-70
2022/10/07 06:18:55;;;;;;;11.20;5.80;;;14.90;88.70;;;;;;5032714;28;21114;-71
2022/10/07 06:21:26;;;;;;;13.60;6.17;;;15.00;88.30;;;;;;5032609;28;20184;-71
2022/10/07 06:23:53;;;;;;;8.57;5.90;;;15.00;88.10;;;;;;5023670;28;20456;-71
2022/10/07 06:26:20;;;;;;;8.67;5.13;;;15.00;88.10;;;;;;5032682;28;20416;-70
2022/10/07 06:28:46;;;;;;;10.83;5.33;;;15.10;88.00;;;;;;5033092;28;20788;-70
2022/10/07 06:31:14;;;;;;;9.70;5.60;;;15.20;87.80;;;;;;5031670;28;20481;-71
2022/10/07 06:33:40;;;;;;;9.13;6.10;;;15.20;87.60;;;;;;5029790;28;20436;-71
2022/10/07 06:36:10;;;;;;;11.97;6.17;;;15.30;87.30;;;;;;5029414;28;20422;-71
2022/10/07 06:38:35;;;;;;;8.00;5.20;;;15.40;86.60;;;;;;5032051;28;20466;-70
2022/10/07 06:41:03;;;;;;;10.43;6.40;;;15.50;86.50;;;;;;5032192;28;20506;-71
2022/10/07 06:43:33;;;;;;;9.50;5.20;;;15.50;86.50;;;;;;5030943;28;20243;-71
2022/10/07 06:46:01;;;;;;;10.43;6.17;;;15.50;86.30;;;;;;5031856;28;20409;-72
2022/10/07 06:48:28;;;;;;;11.03;6.13;;;15.50;86.30;;;;;;5032024;28;20939;-72
2022/10/07 06:50:55;;;;;;;15.33;6.97;;;15.50;85.90;;;;;;5032258;28;20425;-71
2022/10/07 06:53:21;;;;;;;9.77;5.70;;;15.50;85.90;;;;;;5028144;28;20419;-70
2022/10/07 06:55:50;;;;;;;13.00;6.83;;;15.50;86.00;;;;;;5029409;28;20777;-72
2022/10/07 06:58:19;;;;;;;12.37;5.90;;;15.50;85.70;;;;;;5030293;28;20561;-71
2022/10/07 07:00:52;;;;;;;19.30;6.67;;;15.50;85.90;;;;;;5031558;28;20958;-70
2022/10/07 07:03:18;;;;;;;11.97;6.00;;;15.40;85.90;;;;;;5029707;28;20946;-70
2022/10/07 07:05:45;;;;;;;11.63;6.50;;;15.50;86.00;;;;;;5029304;28;20532;-72
2022/10/07 07:08:10;;;;;;;13.87;7.60;;;15.50;86.00;;;;;;5029883;28;20667;-71
2022/10/07 07:10:37;;;;;;;18.60;7.23;;;15.50;85.60;;;;;;5031517;28;20430;-71
2022/10/07 07:13:05;;;;;;;17.27;7.80;;;15.40;85.70;;;;;;5031873;28;20731;-69
2022/10/07 07:15:31;;;;;;;18.73;7.40;;;15.40;86.00;;;;;;5028136;28;20483;-70
2022/10/07 07:17:56;;;;;;;14.60;7.23;;;15.50;86.30;;;;;;5032671;28;20987;-72
2022/10/07 07:20:22;;;;;;;11.43;6.77;;;15.60;86.20;;;;;;5032224;28;20182;-72
2022/10/07 07:22:48;;;;;;;14.83;6.23;;;15.70;86.00;;;;;;5031547;28;20260;-71
2022/10/07 07:25:14;;;;;;;11.53;6.80;;;15.80;85.90;;;;;;5030332;28;20218;-71
2022/10/07 07:27:40;;;;;;;15.67;6.73;;;15.90;85.30;;;;;;5032072;28;20543;-72
2022/10/07 07:30:06;;;;;;;19.77;8.63;;;16.00;85.20;;;;;;5032277;28;20195;-71
2022/10/07 07:32:31;;;;;;;17.60;7.77;;;16.10;84.70;;;;;;5032189;28;20210;-72
2022/10/07 07:34:59;;;;;;;18.10;7.50;;;16.20;84.30;;;;;;5027829;28;20506;-72
2022/10/07 07:37:28;;;;;;;12.83;7.10;;;16.30;83.60;;;;;;5032404;28;20684;-72
2022/10/07 07:39:53;;;;;;;14.10;7.07;;;16.40;82.80;;;;;;5035250;28;21143;-73
2022/10/07 07:42:20;;;;;;;13.47;7.17;;;16.50;83.00;;;;;;5030255;28;20464;-72
2022/10/07 07:44:46;;;;;;;12.23;6.70;;;16.50;82.50;;;;;;5031540;28;20592;-71
2022/10/07 07:47:12;;;;;;;13.57;7.13;;;16.50;83.00;;;;;;5033508;28;21081;-73
2022/10/07 07:49:37;;;;;;;14.87;7.33;;;16.60;83.00;;;;;;5033159;28;20465;-70
2022/10/07 07:52:04;;;;;;;11.40;7.20;;;16.50;82.70;;;;;;5031450;28;20183;-72
2022/10/07 07:54:30;;;;;;;11.57;6.90;;;16.50;83.10;;;;;;5022629;28;20202;-72
2022/10/07 07:56:56;;;;;;;13.60;7.30;;;16.60;83.10;;;;;;5030666;28;20442;-72
2022/10/07 07:59:24;;;;;;;9.80;6.73;;;16.70;82.80;;;;;;5029682;28;20181;-72
2022/10/07 08:01:49;;;;;;;10.70;6.50;;;16.80;82.70;;;;;;5030147;28;20426;-72
2022/10/07 08:04:16;;;;;;;10.90;6.37;;;16.80;81.70;;;;;;5029372;28;20464;-71
2022/10/07 08:06:42;;;;;;;8.27;5.63;;;16.90;81.40;;;;;;5030708;28;20188;-71
2022/10/07 08:09:08;;;;;;;10.27;6.20;;;17.00;81.20;;;;;;5030605;28;20438;-71
2022/10/07 08:11:34;;;;;;;10.07;6.20;;;17.00;80.30;;;;;;5029908;28;20420;-72
2022/10/07 08:14:02;;;;;;;10.47;5.50;;;17.10;80.60;;;;;;5025299;28;20673;-71
2022/10/07 08:16:28;;;;;;;9.00;5.87;;;17.10;80.00;;;;;;5029517;28;20457;-71
2022/10/07 08:18:56;;;;;;;11.27;5.33;;;17.10;79.70;;;;;;5030738;28;20815;-71
2022/10/07 08:21:25;;;;;;;9.10;5.20;;;17.00;79.90;;;;;;5029665;28;20435;-70
2022/10/07 08:23:53;;;;;;;12.63;5.13;;;17.10;79.70;;;;;;5028554;28;20456;-71
2022/10/07 08:26:18;;;;;;;11.07;4.60;;;17.10;79.70;;;;;;5030772;28;20485;-72
2022/10/07 08:28:45;;;;;;;7.57;5.33;;;17.20;79.00;;;;;;5030207;28;20434;-72
2022/10/07 08:31:13;;;;;;;11.33;4.80;;;17.30;79.00;;;;;;5028912;28;20192;-70
2022/10/07 08:33:41;;;;;;;9.03;4.40;;;17.30;78.70;;;;;;5027874;28;20442;-71
2022/10/07 08:36:10;;;;;;;9.37;5.43;;;17.30;79.00;;;;;;5028101;28;20417;-72
2022/10/07 08:38:38;;;;;;;11.00;5.97;;;17.40;79.00;;;;;;5030218;28;20471;-70
2022/10/07 08:41:21;;;;;;;9.07;4.70;;;17.40;79.00;;;;;;5030150;28;20418;-72
2022/10/07 08:43:48;;;;;;;10.00;5.17;;;17.50;78.10;;;;;;5026800;28;20567;-71
2022/10/07 08:46:18;;;;;;;12.43;5.67;;;17.60;78.10;;;;;;5030621;28;20412;-71
2022/10/07 08:48:51;;;;;;;12.13;5.33;;;17.60;78.00;;;;;;5034315;28;20803;-71
2022/10/07 08:51:20;;;;;;;7.30;4.40;;;17.60;78.40;;;;;;5030628;28;20796;-72
2022/10/07 08:53:53;;;;;;;13.40;5.60;;;17.60;78.10;;;;;;5029821;28;20573;-72
2022/10/07 08:56:24;;;;;;;7.03;4.80;;;17.60;78.00;;;;;;5035393;28;20451;-71
2022/10/07 08:59:20;;;;;;;7.40;4.40;;;17.60;78.10;;;;;;5030214;28;20467;-72
2022/10/07 09:02:01;;;;;;;10.17;4.50;;;17.60;78.40;;;;;;5034451;28;20419;-71
2022/10/07 09:04:53;;;;;;;10.07;4.77;;;17.80;78.40;;;;;;5029125;28;20451;-72
2022/10/07 09:07:30;;;;;;;8.13;5.13;;;17.90;77.40;;;;;;5030869;28;20416;-71
2022/10/07 09:10:24;;;;;;;14.50;4.93;;;18.00;77.00;;;;;;5033251;28;20618;-71
2022/10/07 09:12:56;;;;;;;9.47;5.00;;;18.00;77.30;;;;;;5029560;28;20773;-71
2022/10/07 09:15:46;;;;;;;9.80;5.07;;;18.10;76.70;;;;;;5027633;28;20464;-70
2022/10/07 09:18:27;;;;;;;7.63;5.20;;;18.00;76.70;;;;;;5021619;28;20571;-72
2022/10/07 09:20:54;;;;;;;7.53;4.80;;;18.10;76.80;;;;;;5033448;28;20434;-71
2022/10/07 09:23:23;;;;;;;11.87;5.27;;;18.20;76.20;;;;;;5033180;28;20531;-72
2022/10/07 09:25:50;;;;;;;8.97;5.60;;;18.20;75.90;;;;;;5030333;28;20471;-73
2022/10/07 09:28:18;;;;;;;12.50;5.97;;;18.20;76.20;;;;;;5033437;28;20800;-70
2022/10/07 09:30:44;;;;;;;13.13;5.30;;;18.20;76.40;;;;;;5033471;28;20970;-73
2022/10/07 09:33:17;;;;;;;6.73;4.93;;;18.30;76.70;;;;;;5032157;28;20524;-71
2022/10/07 09:35:54;;;;;;;12.63;5.00;;;18.30;76.70;;;;;;5029959;28;20299;-70
2022/10/07 09:38:30;;;;;;;8.90;4.50;;;18.30;76.20;;;;;;5029231;28;20478;-71
2022/10/07 09:41:23;;;;;;;13.00;4.90;;;18.40;76.10;;;;;;5028551;28;20447;-70
2022/10/07 09:43:48;;;;;;;9.80;5.00;;;18.30;76.40;;;;;;5014803;28;20471;-71
2022/10/07 09:46:25;;;;;;;13.60;5.40;;;18.30;76.50;;;;;;5031233;28;20408;-70
2022/10/07 09:48:52;;;;;;;14.03;6.07;;;18.30;77.00;;;;;;5032421;28;20704;-71
2022/10/07 09:51:25;;;;;;;8.27;4.90;;;18.40;76.40;;;;;;5033237;28;20430;-69
2022/10/07 09:53:57;;;;;;;9.93;5.83;;;18.50;76.20;;;;;;5027183;28;20530;-70
2022/10/07 09:56:41;;;;;;;9.13;5.77;;;18.60;75.90;;;;;;5029246;28;20454;-70
2022/10/07 09:59:22;;;;;;;12.07;5.30;;;18.50;76.10;;;;;;5030992;28;20451;-70
2022/10/07 10:01:53;;;;;;;9.57;5.60;;;18.50;76.40;;;;;;5033492;28;20420;-71
2022/10/07 10:04:23;;;;;;;11.23;6.00;;;18.60;75.90;;;;;;5029037;28;20457;-69
2022/10/07 10:06:50;;;;;;;12.13;5.43;;;18.70;76.10;;;;;;5032390;28;20422;-71
2022/10/07 10:09:25;;;;;;;10.20;5.40;;;18.70;76.10;;;;;;5044722;28;20416;-70
2022/10/07 10:12:12;;;;;;;9.80;5.80;;;18.90;75.80;;;;;;5041978;28;20504;-70
2022/10/07 10:14:51;;;;;;;11.30;5.40;;;18.90;74.80;;;;;;5035223;28;20510;-70
2022/10/07 10:17:40;;;;;;;10.67;6.03;;;18.80;75.50;;;;;;5039655;28;20465;-70
2022/10/07 10:20:28;;;;;;;9.53;5.87;;;19.00;75.40;;;;;;5027396;28;20429;-70
2022/10/07 10:22:55;;;;;;;8.87;5.70;;;18.80;75.50;;;;;;5034261;28;20432;-70
2022/10/07 10:28:49;;;;;;;8.67;6.10;;;19.20;74.80;;;;;;5035131;28;20776;-70
2022/10/07 10:31:28;;;;;;;11.03;5.50;;;19.60;73.00;;;;;;5035157;28;20431;-71
2022/10/07 10:34:01;;;;;;;7.40;5.40;;;20.00;71.40;;;;;;5028914;28;20667;-71
2022/10/07 10:36:29;;;;;;;14.57;5.60;;;20.20;70.80;;;;;;5032144;28;20522;-70
2022/10/07 10:39:22;;;;;;;11.00;5.90;;;20.40;68.60;;;;;;5035029;28;20488;-69
2022/10/07 10:41:47;;;;;;;11.27;5.23;;;20.40;68.80;;;;;;5033060;28;20527;-71
2022/10/07 10:44:31;;;;;;;9.67;6.17;;;20.20;69.80;;;;;;5027861;28;20484;-71
2022/10/07 10:47:41;;;;;;;8.23;5.17;;;20.20;70.50;;;;;;5029327;28;20173;-71
2022/10/07 10:50:22;;;;;;;10.40;5.23;;;20.40;69.50;;;;;;5028277;28;20920;-70
2022/10/07 10:53:06;;;;;;;8.17;5.60;;;20.60;68.80;;;;;;5029854;28;20440;-70
2022/10/07 10:55:57;;;;;;;10.40;5.47;;;20.90;68.30;;;;;;5024335;28;20539;-70
2022/10/07 10:58:54;;;;;;;10.00;5.63;;;20.70;68.50;;;;;;5029242;28;20559;-70
2022/10/07 11:01:31;;;;;;;10.40;6.33;;;20.60;68.90;;;;;;5030725;28;20418;-70
2022/10/07 11:04:44;;;;;;;10.60;6.40;;;20.80;68.20;;;;;;5020042;28;21049;-71
2022/10/07 11:07:28;;;;;;;9.20;6.20;;;21.00;68.30;;;;;;4970350;28;20490;-70
2022/10/07 11:09:59;;;;;;;9.60;5.97;;;21.50;67.00;;;;;;4970024;28;20824;-70
2022/10/07 11:12:38;;;;;;;7.43;5.30;;;21.70;66.90;;;;;;4970538;28;20529;-70
2022/10/07 11:15:38;;;;;;;9.80;5.87;;;21.80;66.30;;;;;;4969047;28;20981;-70
2022/10/07 11:18:17;;;;;;;9.70;5.63;;;21.90;66.40;;;;;;4970053;28;20588;-70
2022/10/07 11:20:46;;;;;;;9.20;5.60;;;22.00;67.00;;;;;;4970342;28;20436;-70
2022/10/07 11:23:44;;;;;;;15.50;6.10;;;22.50;66.00;;;;;;4962815;28;20933;-72
2022/10/07 11:26:19;;;;;;;14.73;6.57;;;22.70;64.80;;;;;;4969663;28;20430;-70
2022/10/07 11:28:47;;;;;;;10.90;5.80;;;22.80;63.80;;;;;;4969559;28;20434;-70
2022/10/07 11:31:35;;;;;;;9.00;6.17;;;22.60;65.00;;;;;;4969958;28;20447;-70
2022/10/07 11:34:27;;;;;;;11.80;6.67;;;22.50;65.00;;;;;;4963727;28;20473;-71
2022/10/07 11:37:04;;;;;;;12.57;7.03;;;22.10;66.60;;;;;;4960293;28;20426;-71
2022/10/07 11:39:30;;;;;;;12.67;7.13;;;22.30;66.10;;;;;;4968334;28;20426;-70
2022/10/07 11:42:23;;;;;;;16.33;7.53;;;22.40;66.00;;;;;;4986595;28;20448;-70
2022/10/07 11:45:01;;;;;;;7.73;5.90;;;22.30;66.00;;;;;;5021856;28;20222;-71
2022/10/07 11:47:42;;;;;;;11.77;6.10;;;22.20;67.20;;;;;;5029743;28;20423;-70
2022/10/07 11:50:25;;;;;;;10.43;6.80;;;22.40;66.90;;;;;;5027496;28;20514;-71
2022/10/07 11:52:55;;;;;;;11.90;7.33;;;22.50;65.30;;;;;;5025065;28;20431;-71
2022/10/07 11:55:34;;;;;;;10.50;6.13;;;22.50;65.80;;;;;;5027717;28;20470;-71
2022/10/07 11:58:02;;;;;;;16.43;7.10;;;22.50;66.40;;;;;;5028102;28;20474;-71
2022/10/07 12:00:30;;;;;;;9.13;6.00;;;22.40;66.40;;;;;;5029286;28;20503;-70
2022/10/07 12:03:10;;;;;;;18.63;6.47;;;22.60;66.70;;;;;;5029125;28;20731;-69
2022/10/07 12:05:35;;;;;;;10.60;6.97;;;22.80;66.40;;;;;;5023992;28;20464;-71
2022/10/07 12:08:22;;;;;;;10.47;6.80;;;22.60;65.70;;;;;;5030442;28;20427;-71
2022/10/07 12:10:54;;;;;;;11.43;7.07;;;22.40;66.60;;;;;;5026540;28;20212;-71
2022/10/07 12:13:19;;;;;;;12.83;6.80;;;22.10;67.00;;;;;;5030388;28;20480;-70
2022/10/07 12:15:46;;;;;;;10.00;6.80;;;21.80;67.90;;;;;;5024573;28;20458;-72
2022/10/07 12:18:16;;;;;;;10.57;6.30;;;21.90;68.50;;;;;;5030221;28;20690;-71
2022/10/07 12:20:45;;;;;;;10.37;6.97;;;22.10;68.20;;;;;;5030376;28;20484;-70
2022/10/07 12:25:59;;;;;;;15.30;6.47;;;22.20;67.60;;;;;;5030357;28;20986;-71
2022/10/07 12:28:35;;;;;;;9.17;6.57;;;22.40;67.50;;;;;;5034111;28;20527;-70
2022/10/07 12:31:14;;;;;;;10.70;6.93;;;22.30;67.50;;;;;;5032861;28;20940;-70
2022/10/07 12:33:56;;;;;;;8.50;6.30;;;22.40;67.00;;;;;;5031609;28;20442;-71
2022/10/07 12:36:26;;;;;;;10.43;7.20;;;22.20;67.60;;;;;;5030319;28;20473;-69
2022/10/07 12:39:00;;;;;;;12.50;7.47;;;22.20;67.70;;;;;;5031133;28;20465;-70
2022/10/07 12:41:29;;;;;;;11.23;6.90;;;22.50;67.00;;;;;;5032831;28;20470;-70
2022/10/07 12:44:19;;;;;;;11.87;6.87;;;22.50;66.60;;;;;;5030766;28;20536;-71
2022/10/07 12:47:08;;;;;;;13.60;7.10;;;22.50;66.70;;;;;;5031929;28;20788;-69
2022/10/07 12:49:39;;;;;;;37.90;7.90;;;22.50;66.60;;;;;;5031665;28;20799;-71
2022/10/07 12:52:10;;;;;;;10.30;6.90;;;22.40;67.50;;;;;;5033596;28;20454;-70
2022/10/07 12:54:50;;;;;;;11.80;6.50;;;22.60;66.10;;;;;;5025707;28;20459;-71
2022/10/07 12:57:22;;;;;;;11.23;6.30;;;22.80;66.30;;;;;;5033610;28;20409;-70
2022/10/07 12:59:51;;;;;;;8.70;5.80;;;22.90;66.00;;;;;;5033604;28;20432;-71
2022/10/07 13:02:43;;;;;;;12.03;6.73;;;23.20;64.50;;;;;;5033350;28;20422;-73
2022/10/07 13:05:24;;;;;;;10.57;6.40;;;22.90;65.00;;;;;;5022636;28;20756;-72
2022/10/07 13:08:08;;;;;;;9.33;6.90;;;22.30;67.00;;;;;;5030100;28;20414;-71
2022/10/07 13:10:45;;;;;;;10.53;6.63;;;22.10;68.00;;;;;;5034711;28;20488;-72
2022/10/07 13:13:24;;;;;;;8.90;6.47;;;22.30;67.00;;;;;;5034868;28;20777;-71